createdAt,value
2023-05-06T00:00:31.086Z,1009.4
2023-05-06T00:03:41.053Z,1009.3
2023-05-06T00:06:28.508Z,1009.2
2023-05-06T00:09:21.027Z,1009.3
2023-05-06T00:12:08.998Z,1009.3
2023-05-06T00:14:56.268Z,1009.4
2023-05-06T00:17:44.099Z,1009.3
2023-05-06T00:20:32.092Z,1009.3
2023-05-06T00:23:20.178Z,1009.3
2023-05-06T00:26:07.493Z,1009.3
2023-05-06T00:28:55.695Z,1009.3
2023-05-06T00:31:43.155Z,1009.3
2023-05-06T00:34:30.765Z,1009.3
2023-05-06T00:37:23.262Z,1009.4
2023-05-06T00:40:10.693Z,1009.2
2023-05-06T00:42:58.926Z,1009.1
2023-05-06T00:45:47.407Z,1009
2023-05-06T00:48:35.980Z,1008.9
2023-05-06T00:51:24.429Z,1009
2023-05-06T00:54:12.700Z,1008.9
2023-05-06T00:57:00.270Z,1008.9
2023-05-06T00:59:48.264Z,1008.9
2023-05-06T01:02:43.754Z,1008.8
2023-05-06T01:05:34.820Z,1008.7
2023-05-06T01:08:36.122Z,1008.7
2023-05-06T01:11:32.931Z,1008.7
2023-05-06T01:14:35.831Z,1008.6
2023-05-06T01:17:31.251Z,1008.7
2023-05-06T01:20:25.167Z,1008.6
2023-05-06T01:23:15.497Z,1008.8
2023-05-06T01:26:03.325Z,1008.7
2023-05-06T01:28:50.790Z,1008.7
2023-05-06T01:31:38.550Z,1008.7
2023-05-06T01:34:32.844Z,1008.7
2023-05-06T01:37:28.338Z,1008.7
2023-05-06T01:40:24.797Z,1008.7
2023-05-06T01:43:20.011Z,1008.8
2023-05-06T01:46:09.667Z,1008.7
2023-05-06T01:49:02.266Z,1008.7
2023-05-06T01:51:55.069Z,1008.7
2023-05-06T01:54:48.588Z,1008.7
2023-05-06T01:57:35.966Z,1008.8
2023-05-06T02:00:23.496Z,1008.7
2023-05-06T02:03:11.288Z,1008.6
2023-05-06T02:06:03.796Z,1008.6
2023-05-06T02:08:51.343Z,1008.6
2023-05-06T02:11:43.829Z,1008.5
2023-05-06T02:14:31.214Z,1008.6
2023-05-06T02:17:18.705Z,1008.6
2023-05-06T02:20:06.339Z,1008.5
2023-05-06T02:22:55.258Z,1008.4
2023-05-06T02:25:42.584Z,1008.5
2023-05-06T02:28:31.131Z,1008.5
2023-05-06T02:31:18.592Z,1008.4
2023-05-06T02:34:06.060Z,1008.4
2023-05-06T02:36:54.278Z,1008.4
2023-05-06T02:39:42.071Z,1008.4
2023-05-06T02:42:29.516Z,1008.4
2023-05-06T02:45:16.783Z,1008.3
2023-05-06T02:48:04.558Z,1008.3
2023-05-06T02:50:52.074Z,1008.4
2023-05-06T02:53:39.567Z,1008.4
2023-05-06T02:56:26.910Z,1008.3
2023-05-06T02:59:14.363Z,1008.4
2023-05-06T03:02:02.050Z,1008.4
2023-05-06T03:04:49.350Z,1008.5
2023-05-06T03:07:36.697Z,1008.5
2023-05-06T03:10:24.112Z,1008.4
2023-05-06T03:13:11.637Z,1008.4
2023-05-06T03:15:58.958Z,1008.2
2023-05-06T03:18:47.470Z,1008.2
2023-05-06T03:21:35.234Z,1008.2
2023-05-06T03:24:22.771Z,1008.1
2023-05-06T03:27:11.154Z,1008.1
2023-05-06T03:29:58.695Z,1008
2023-05-06T03:32:46.874Z,1008.1
2023-05-06T03:35:34.427Z,1008.2
2023-05-06T03:38:21.759Z,1008.2
2023-05-06T03:41:09.481Z,1008.1
2023-05-06T03:43:57.432Z,1008.2
2023-05-06T03:46:44.828Z,1008.1
2023-05-06T03:49:33.594Z,1008.2
2023-05-06T03:52:21.397Z,1008.2
2023-05-06T03:55:09.043Z,1008.2
2023-05-06T03:58:02.162Z,1008.2
2023-05-06T04:00:49.510Z,1008.2
2023-05-06T04:03:42.229Z,1008.2
2023-05-06T04:06:30.413Z,1008.2
2023-05-06T04:09:22.907Z,1008.1
2023-05-06T04:12:15.624Z,1008.3
2023-05-06T04:15:02.931Z,1008.3
2023-05-06T04:17:51.944Z,1008.3
2023-05-06T04:20:39.358Z,1008.3
2023-05-06T04:23:26.772Z,1008.4
2023-05-06T04:26:14.272Z,1008.3
2023-05-06T04:29:11.606Z,1008.3
2023-05-06T04:31:59.102Z,1008.2
2023-05-06T04:34:53.965Z,1008.3
2023-05-06T04:37:41.828Z,1008.2
2023-05-06T04:40:29.157Z,1008.3
2023-05-06T04:43:28.024Z,1008.3
2023-05-06T04:46:15.968Z,1008.2
2023-05-06T04:49:03.433Z,1008.2
2023-05-06T04:51:50.985Z,1008.2
2023-05-06T04:54:38.341Z,1008.2
2023-05-06T04:57:30.867Z,1008.2
2023-05-06T05:00:18.198Z,1008.2
2023-05-06T05:03:11.724Z,1008.2
2023-05-06T05:06:04.409Z,1008.3
2023-05-06T05:08:54.285Z,1008.3
2023-05-06T05:11:43.560Z,1008.2
2023-05-06T05:14:30.819Z,1008.2
2023-05-06T05:17:18.354Z,1008.4
2023-05-06T05:20:06.264Z,1008.3
2023-05-06T05:22:54.591Z,1008.3
2023-05-06T05:25:42.124Z,1008.3
2023-05-06T05:28:29.531Z,1008.3
2023-05-06T05:31:17.702Z,1008.3
2023-05-06T05:34:05.217Z,1008.3
2023-05-06T05:36:57.816Z,1008.3
2023-05-06T05:39:45.663Z,1008.3
2023-05-06T05:42:33.801Z,1008.3
2023-05-06T05:45:26.218Z,1008.3
2023-05-06T05:48:13.599Z,1008.3
2023-05-06T05:51:11.290Z,1008.2
2023-05-06T05:53:59.352Z,1008.3
2023-05-06T05:56:46.974Z,1008.3
2023-05-06T05:59:35.570Z,1008.3
2023-05-06T06:02:22.902Z,1008.3
2023-05-06T06:05:10.509Z,1008.3
2023-05-06T06:07:58.009Z,1008.2
2023-05-06T06:10:45.821Z,1008.3
2023-05-06T06:13:34.026Z,1008.2
2023-05-06T06:16:21.489Z,1008.3
2023-05-06T06:19:09.037Z,1008.3
2023-05-06T06:21:57.339Z,1008.3
2023-05-06T06:24:44.772Z,1008.3
2023-05-06T06:27:33.046Z,1008.2
2023-05-06T06:30:20.988Z,1008.2
2023-05-06T06:33:09.209Z,1008.2
2023-05-06T06:35:56.695Z,1008.3
2023-05-06T06:38:44.176Z,1008.2
2023-05-06T06:41:31.621Z,1008.2
2023-05-06T06:44:19.361Z,1008.2
2023-05-06T06:47:06.654Z,1008.2
2023-05-06T06:49:54.183Z,1008.2
2023-05-06T06:52:42.086Z,1008.2
2023-05-06T06:55:30.463Z,1008.3
2023-05-06T06:58:17.921Z,1008.2
2023-05-06T07:01:05.401Z,1008.2
2023-05-06T07:03:52.926Z,1008.2
2023-05-06T07:06:40.455Z,1008.2
2023-05-06T07:09:27.876Z,1008.3
2023-05-06T07:12:15.659Z,1008.2
2023-05-06T07:15:02.952Z,1008.3
2023-05-06T07:17:51.912Z,1008.3
2023-05-06T07:20:39.333Z,1008.3
2023-05-06T07:23:26.755Z,1008.4
2023-05-06T07:26:14.166Z,1008.3
2023-05-06T07:29:01.560Z,1008.4
2023-05-06T07:31:49.372Z,1008.4
2023-05-06T07:34:37.273Z,1008.4
2023-05-06T07:37:24.531Z,1008.4
2023-05-06T07:40:12.226Z,1008.4
2023-05-06T07:42:59.567Z,1008.5
2023-05-06T07:45:48.065Z,1008.4
2023-05-06T07:48:35.508Z,1008.4
2023-05-06T07:51:22.936Z,1008.4
2023-05-06T07:54:10.487Z,1008.4
2023-05-06T07:56:57.900Z,1008.5
2023-05-06T07:59:45.653Z,1008.4
2023-05-06T08:02:35.343Z,1008.5
2023-05-06T08:05:23.909Z,1008.5
2023-05-06T08:08:11.387Z,1008.5
2023-05-06T08:10:59.111Z,1008.6
2023-05-06T08:13:52.571Z,1008.5
2023-05-06T08:16:47.459Z,1008.6
2023-05-06T08:19:37.850Z,1008.6
2023-05-06T08:22:26.847Z,1008.6
2023-05-06T08:25:16.248Z,1008.7
2023-05-06T08:28:10.684Z,1008.6
2023-05-06T08:31:00.245Z,1008.6
2023-05-06T08:33:49.266Z,1008.6
2023-05-06T08:36:36.787Z,1008.6
2023-05-06T08:39:24.630Z,1008.7
2023-05-06T08:42:12.767Z,1008.6
2023-05-06T08:45:00.840Z,1008.7
2023-05-06T08:47:53.090Z,1008.6
2023-05-06T08:50:40.662Z,1008.7
2023-05-06T08:53:28.806Z,1008.8
2023-05-06T08:56:17.956Z,1008.8
2023-05-06T08:59:07.880Z,1008.7
2023-05-06T09:01:56.432Z,1008.8
2023-05-06T09:04:47.009Z,1008.7
2023-05-06T09:07:39.792Z,1008.6
2023-05-06T09:10:29.118Z,1008.6
2023-05-06T09:13:23.286Z,1008.7
2023-05-06T09:16:12.114Z,1008.6
2023-05-06T09:19:14.324Z,1008.6
2023-05-06T09:22:05.197Z,1008.6
2023-05-06T09:24:55.440Z,1008.5
2023-05-06T09:27:45.074Z,1008.5
2023-05-06T09:30:35.314Z,1008.5
2023-05-06T09:33:26.614Z,1008.4
2023-05-06T09:36:15.954Z,1008.3
2023-05-06T09:39:06.854Z,1008.3
2023-05-06T09:41:56.151Z,1008.4
2023-05-06T09:44:47.298Z,1008.4
2023-05-06T09:47:39.297Z,1008.4
2023-05-06T09:50:34.391Z,1008.4
2023-05-06T09:53:23.864Z,1008.3
2023-05-06T09:56:14.065Z,1008.3
2023-05-06T09:59:04.829Z,1008.3
2023-05-06T10:01:55.762Z,1008.3
2023-05-06T10:04:46.881Z,1008.3
2023-05-06T10:07:39.836Z,1008.3
2023-05-06T10:10:28.930Z,1008.3
2023-05-06T10:13:20.102Z,1008.5
2023-05-06T10:16:10.122Z,1008.6
2023-05-06T10:19:00.942Z,1008.4
2023-05-06T10:21:52.023Z,1008.4
2023-05-06T10:24:47.236Z,1008.5
2023-05-06T10:27:43.615Z,1008.4
2023-05-06T10:30:33.843Z,1008.5
2023-05-06T10:33:22.979Z,1008.3
2023-05-06T10:36:12.389Z,1008.2
2023-05-06T10:39:05.047Z,1008.2
2023-05-06T10:41:55.178Z,1008.1
2023-05-06T10:44:44.489Z,1008.1
2023-05-06T10:47:50.962Z,1008.1
2023-05-06T10:50:57.386Z,1008
2023-05-06T10:54:17.381Z,1008.1
2023-05-06T10:57:09.080Z,1008
2023-05-06T10:59:56.563Z,1008.1
2023-05-06T11:02:46.179Z,1008.1
2023-05-06T11:05:41.374Z,1008.1
2023-05-06T11:08:33.726Z,1008.1
2023-05-06T11:11:21.399Z,1008
2023-05-06T11:14:45.543Z,1008.1
2023-05-06T11:17:34.342Z,1008.1
2023-05-06T11:20:23.179Z,1008.1
2023-05-06T11:23:11.752Z,1008.1
2023-05-06T11:25:59.241Z,1008.1
2023-05-06T11:28:47.161Z,1008.1
2023-05-06T11:31:36.468Z,1008.1
2023-05-06T11:34:26.643Z,1008.1
2023-05-06T11:37:16.115Z,1008.1
2023-05-06T11:40:11.285Z,1008.1
2023-05-06T11:43:00.460Z,1008.2
2023-05-06T11:45:56.153Z,1008.4
2023-05-06T11:48:44.291Z,1008.3
2023-05-06T11:51:32.089Z,1008.4
2023-05-06T11:54:19.508Z,1008.4
2023-05-06T11:57:07.560Z,1008.5
2023-05-06T11:59:55.168Z,1008.5
2023-05-06T12:02:42.882Z,1008.5
2023-05-06T12:05:30.362Z,1008.6
2023-05-06T12:08:26.693Z,1008.6
2023-05-06T12:11:17.706Z,1008.6
2023-05-06T12:14:05.686Z,1008.6
2023-05-06T12:16:56.150Z,1008.8
2023-05-06T12:19:44.035Z,1008.7
2023-05-06T12:22:32.380Z,1008.7
2023-05-06T12:25:19.878Z,1008.8
2023-05-06T12:28:07.282Z,1008.8
2023-05-06T12:31:03.828Z,1008.9
2023-05-06T12:34:04.077Z,1009
2023-05-06T12:36:51.396Z,1009.2
2023-05-06T12:39:38.981Z,1009.2
2023-05-06T12:42:26.314Z,1009.3
2023-05-06T12:45:13.953Z,1009.3
2023-05-06T12:48:01.534Z,1009.2
2023-05-06T12:50:50.347Z,1009.3
2023-05-06T12:53:37.644Z,1009.4
2023-05-06T12:56:25.196Z,1009.3
2023-05-06T12:59:12.500Z,1009.3
2023-05-06T13:02:00.023Z,1009.3
2023-05-06T13:04:48.490Z,1009.4
2023-05-06T13:07:35.954Z,1009.4
2023-05-06T13:10:23.339Z,1009.3
2023-05-06T13:13:10.982Z,1009.3
2023-05-06T13:15:58.680Z,1009.3
2023-05-06T13:18:46.460Z,1009.4
2023-05-06T13:21:34.538Z,1009.4
2023-05-06T13:24:22.656Z,1009.4
2023-05-06T13:27:10.165Z,1009.4
2023-05-06T13:29:57.601Z,1009.4
2023-05-06T13:32:45.204Z,1009.4
2023-05-06T13:35:33.382Z,1009.3
2023-05-06T13:38:20.973Z,1009.4
2023-05-06T13:41:10.026Z,1009.4
2023-05-06T13:43:57.464Z,1009.4
2023-05-06T13:46:46.404Z,1009.4
2023-05-06T13:49:34.753Z,1009.4
2023-05-06T13:52:22.088Z,1009.3
2023-05-06T13:55:09.714Z,1009.3
2023-05-06T13:57:57.854Z,1009.4
2023-05-06T14:00:45.497Z,1009.4
2023-05-06T14:03:33.918Z,1009.4
2023-05-06T14:06:21.653Z,1009.3
2023-05-06T14:09:09.577Z,1009.3
2023-05-06T14:11:57.505Z,1009.4
2023-05-06T14:14:48.030Z,1009.4
2023-05-06T14:17:37.724Z,1009.4
2023-05-06T14:20:27.377Z,1009.3
2023-05-06T14:23:22.273Z,1009.3
2023-05-06T14:26:11.759Z,1009.4
2023-05-06T14:29:01.255Z,1009.3
2023-05-06T14:31:50.536Z,1009.3
2023-05-06T14:34:38.667Z,1009.3
2023-05-06T14:37:30.235Z,1009.3
2023-05-06T14:40:19.793Z,1009.4
2023-05-06T14:43:08.951Z,1009.4
2023-05-06T14:45:58.059Z,1009.4
2023-05-06T14:48:47.061Z,1009.5
2023-05-06T14:51:36.035Z,1009.4
2023-05-06T14:54:25.530Z,1009.4
2023-05-06T14:57:14.458Z,1009.4
2023-05-06T15:00:04.320Z,1009.4
2023-05-06T15:02:55.265Z,1009.4
2023-05-06T15:05:44.365Z,1009.4
2023-05-06T15:08:35.515Z,1009.5
2023-05-06T15:11:24.690Z,1009.5
2023-05-06T15:14:13.883Z,1009.4
2023-05-06T15:17:03.334Z,1009.4
2023-05-06T15:19:52.886Z,1009.3
2023-05-06T15:22:42.082Z,1009.4
2023-05-06T15:25:35.150Z,1009.3
2023-05-06T15:28:25.206Z,1009.4
2023-05-06T15:31:14.546Z,1009.3
2023-05-06T15:34:03.427Z,1009.4
2023-05-06T15:36:52.740Z,1009.4
2023-05-06T15:39:41.992Z,1009.5
2023-05-06T15:42:32.668Z,1009.5
2023-05-06T15:45:23.768Z,1009.5
2023-05-06T15:48:12.385Z,1009.6
2023-05-06T15:50:59.850Z,1009.7
2023-05-06T15:53:47.641Z,1009.6
2023-05-06T15:56:40.570Z,1009.6
2023-05-06T15:59:28.212Z,1009.7
2023-05-06T16:05:06.148Z,1009.6
2023-05-06T16:07:54.350Z,1009.5
2023-05-06T16:10:41.942Z,1009.6
2023-05-06T16:13:29.360Z,1009.6
2023-05-06T16:16:17.072Z,1009.6
2023-05-06T16:19:04.427Z,1009.6
2023-05-06T16:21:52.671Z,1009.7
2023-05-06T16:24:41.450Z,1009.7
2023-05-06T16:27:28.637Z,1009.6
2023-05-06T16:30:16.093Z,1009.7
2023-05-06T16:33:03.622Z,1009.6
2023-05-06T16:35:51.021Z,1009.6
2023-05-06T16:38:38.444Z,1009.7
2023-05-06T16:41:25.752Z,1009.6
2023-05-06T16:44:13.139Z,1009.7
2023-05-06T16:47:00.608Z,1009.7
2023-05-06T16:49:48.073Z,1009.7
2023-05-06T16:52:35.528Z,1009.7
2023-05-06T16:55:23.408Z,1009.8
2023-05-06T16:58:11.171Z,1009.7
2023-05-06T17:00:58.780Z,1009.8
2023-05-06T17:03:46.370Z,1009.8
2023-05-06T17:06:33.881Z,1009.7
2023-05-06T17:09:21.370Z,1009.9
2023-05-06T17:12:09.008Z,1009.9
2023-05-06T17:14:56.573Z,1009.9
2023-05-06T17:17:43.875Z,1009.9
2023-05-06T17:20:31.335Z,1010
2023-05-06T17:23:21.198Z,1009.9
2023-05-06T17:26:10.307Z,1010
2023-05-06T17:28:58.173Z,1010
2023-05-06T17:31:46.542Z,1010
2023-05-06T17:34:35.553Z,1010
2023-05-06T17:37:23.100Z,1010
2023-05-06T17:40:10.619Z,1010.1
2023-05-06T17:42:59.794Z,1010.1
2023-05-06T17:45:47.623Z,1010.2
2023-05-06T17:48:35.199Z,1010.1
2023-05-06T17:51:22.521Z,1010.1
2023-05-06T17:54:10.128Z,1010.1
2023-05-06T17:56:57.908Z,1010.2
2023-05-06T17:59:46.841Z,1010.4
2023-05-06T18:02:34.882Z,1010.3
2023-05-06T18:05:22.622Z,1010.3
2023-05-06T18:08:10.813Z,1010.4
2023-05-06T18:10:58.074Z,1010.5
2023-05-06T18:13:45.441Z,1010.5
2023-05-06T18:16:33.900Z,1010.5
2023-05-06T18:19:21.806Z,1010.6
2023-05-06T18:22:09.293Z,1010.5
2023-05-06T18:24:56.712Z,1010.5
2023-05-06T18:27:44.221Z,1010.5
2023-05-06T18:30:32.952Z,1010.5
2023-05-06T18:33:20.635Z,1010.6
2023-05-06T18:36:08.209Z,1010.6
2023-05-06T18:38:57.163Z,1010.6
2023-05-06T18:41:44.709Z,1010.6
2023-05-06T18:44:32.749Z,1010.6
2023-05-06T18:47:20.360Z,1010.7
2023-05-06T18:50:10.151Z,1010.7
2023-05-06T18:52:58.113Z,1010.7
2023-05-06T18:55:45.486Z,1010.7
2023-05-06T18:58:33.572Z,1010.7
2023-05-06T19:01:22.605Z,1010.8
2023-05-06T19:04:10.583Z,1010.8
2023-05-06T19:06:58.153Z,1010.8
2023-05-06T19:09:45.747Z,1010.8
2023-05-06T19:12:34.055Z,1010.8
2023-05-06T19:15:21.456Z,1010.8
2023-05-06T19:18:09.051Z,1010.9
2023-05-06T19:20:56.750Z,1010.8
2023-05-06T19:23:44.030Z,1010.9
2023-05-06T19:26:31.554Z,1010.9
2023-05-06T19:29:19.299Z,1010.9
2023-05-06T19:32:06.632Z,1010.8
2023-05-06T19:34:54.148Z,1010.9
2023-05-06T19:37:41.463Z,1010.9
2023-05-06T19:40:28.823Z,1011
2023-05-06T19:43:16.191Z,1011
2023-05-06T19:46:03.715Z,1011
2023-05-06T19:48:52.377Z,1011
2023-05-06T19:51:39.968Z,1011
2023-05-06T19:54:27.391Z,1011
2023-05-06T19:57:14.686Z,1011
2023-05-06T20:00:03.266Z,1011
2023-05-06T20:02:55.224Z,1011.1
2023-05-06T20:05:45.397Z,1011
2023-05-06T20:08:33.663Z,1011
2023-05-06T20:11:21.032Z,1011.1
2023-05-06T20:14:08.962Z,1011.1
2023-05-06T20:16:56.302Z,1011.1
2023-05-06T20:19:43.693Z,1011.1
2023-05-06T20:22:31.295Z,1011.1
2023-05-06T20:25:18.861Z,1011.1
2023-05-06T20:28:07.728Z,1011.1
2023-05-06T20:30:55.290Z,1011.2
2023-05-06T20:33:44.283Z,1011.2
2023-05-06T20:36:31.553Z,1011.2
2023-05-06T20:39:19.575Z,1011.2
2023-05-06T20:42:07.561Z,1011.2
2023-05-06T20:44:55.534Z,1011.3
2023-05-06T20:47:43.187Z,1011.2
2023-05-06T20:50:30.554Z,1011.3
2023-05-06T20:53:17.999Z,1011.2
2023-05-06T20:56:05.439Z,1011.2
2023-05-06T20:59:02.028Z,1011.2
2023-05-06T21:01:50.512Z,1011.2
2023-05-06T21:04:38.706Z,1011.3
2023-05-06T21:07:26.816Z,1011.3
2023-05-06T21:10:14.258Z,1011.4
2023-05-06T21:13:01.654Z,1011.3
2023-05-06T21:15:49.345Z,1011.4
2023-05-06T21:18:36.753Z,1011.4
2023-05-06T21:21:24.558Z,1011.4
2023-05-06T21:24:15.758Z,1011.4
2023-05-06T21:27:03.089Z,1011.4
2023-05-06T21:29:50.428Z,1011.4
2023-05-06T21:32:37.890Z,1011.4
2023-05-06T21:35:25.350Z,1011.4
2023-05-06T21:38:12.936Z,1011.4
2023-05-06T21:41:00.316Z,1011.4
2023-05-06T21:43:48.109Z,1011.4
2023-05-06T21:46:35.789Z,1011.4
2023-05-06T21:49:23.236Z,1011.3
2023-05-06T21:52:10.664Z,1011.4
2023-05-06T21:54:58.131Z,1011.4
2023-05-06T21:57:46.394Z,1011.4
2023-05-06T22:00:34.954Z,1011.5
2023-05-06T22:03:22.466Z,1011.4
2023-05-06T22:06:10.739Z,1011.3
2023-05-06T22:08:58.186Z,1011.4
2023-05-06T22:11:45.746Z,1011.4
2023-05-06T22:14:41.197Z,1011.3
2023-05-06T22:17:29.059Z,1011.4
2023-05-06T22:20:17.292Z,1011.4
2023-05-06T22:23:06.048Z,1011.5
2023-05-06T22:25:53.413Z,1011.5
2023-05-06T22:28:40.786Z,1011.5
2023-05-06T22:31:28.062Z,1011.5
2023-05-06T22:34:15.481Z,1011.5
2023-05-06T22:37:02.768Z,1011.5
2023-05-06T22:39:54.428Z,1011.5
2023-05-06T22:42:42.518Z,1011.5
2023-05-06T22:45:29.977Z,1011.6
2023-05-06T22:48:17.493Z,1011.5
2023-05-06T22:51:06.230Z,1011.6
2023-05-06T22:53:53.746Z,1011.7
2023-05-06T22:56:41.149Z,1011.6
2023-05-06T22:59:28.515Z,1011.6
2023-05-06T23:02:15.868Z,1011.6
2023-05-06T23:05:03.317Z,1011.7
2023-05-06T23:07:51.899Z,1011.7
2023-05-06T23:10:39.383Z,1011.7
2023-05-06T23:13:27.063Z,1011.7
2023-05-06T23:16:15.815Z,1011.7
2023-05-06T23:19:03.308Z,1011.6
2023-05-06T23:21:51.261Z,1011.8
2023-05-06T23:24:38.605Z,1011.8
2023-05-06T23:27:26.768Z,1011.8
2023-05-06T23:30:14.593Z,1011.8
2023-05-06T23:33:01.959Z,1011.8
2023-05-06T23:35:49.374Z,1011.6
2023-05-06T23:38:36.713Z,1011.8
2023-05-06T23:41:24.064Z,1011.7
2023-05-06T23:44:11.467Z,1011.7
2023-05-06T23:46:58.986Z,1011.8
2023-05-06T23:49:46.996Z,1011.8
2023-05-06T23:52:35.255Z,1011.8
2023-05-06T23:55:23.982Z,1011.7
2023-05-06T23:58:11.856Z,1011.7
